Terminal Aerodrome Forecast
Issued by NWS

Home | Current Version | Previous Version | Text Only | Print | Product List | Glossary On
Versions: 1 2 3 4 5 6 7 8 9 10 11 12 13 14 15 16 17 18
000
FTUS44 KBMX 191700
TAFTOI
TAF
KTOI 191730Z 1918/2018 12005KT P6SM VCTS SCT050CB
     FM200100 06002KT P6SM FEW250
     FM201000 06007KT 4SM BR BKN025=

USA.gov is the U.S. government's official web portal to all federal, state and local government web resources and services.